Test XHTML 1.0 Strict Page for WU-History Testing
Station Historical Data
 
Daily Summary for October 20, 2017 Units:  Both    English   Metric
« Previous Day
Next Day »
Daily Weekly Monthly Yearly Custom
  Current: High: Low: Average:
Temperature: 49.8 °F /  9.9 °C 55.4 °F /  13 °C 48.0 °F /  8.9 °C 52.2 °F /  11.2 °C
Dew Point: 47.6 °F /  8.7 °C 54.6 °F /  12.6 °C 46.1 °F /  7.8 °C 51.3 °F /  10.7 °C
Humidity: 92 % 100 % 90 % 97 %
Wind Speed: 6.6 mph /  10.6 km/h 11.9 mph /  19.2 km/h - 1.7 mph /  2.7 km/h
Wind Gust: 6.6 mph /  10.6 km/h 11.9 mph /  19.2 km/h - -
Wind:SE - - SSW
Pressure: 29.60 in /  1002.3 hPa 29.73 in /  1006.7 hPa 29.36 in /  994.1 hPa -
Precipitation: 0.18 in /  4.57 mm      
Historical Graphs
 
 
Weather-Above Climate History
Untitled
Tabular Data for October 20, 2017
Time Temperature Dew Point Pressure Wind Wind Speed Wind Gust Humidity Rainfall Rate (Hourly) solar Conditions
00:01 55.0 °F /  12.8 °C 54.2 °F /  12.3 °C 29.37 in /  994.5 hPa SSW 5.8 mph /  9.3 km/h 5.8 mph /  9.3 km/h 97 % 0.03 in /  0.76 mm 17.5 W/m2 RA
00:06 54.9 °F /  12.7 °C 54.0 °F /  12.2 °C 29.37 in /  994.5 hPa SSE 3.6 mph /  5.8 km/h 3.6 mph /  5.8 km/h 97 % 0.04 in /  1.02 mm 0.0 W/m2 RA
00:11 54.9 °F /  12.7 °C 54.3 °F /  12.4 °C 29.37 in /  994.5 hPa SSE 5.7 mph /  9.2 km/h 5.7 mph /  9.2 km/h 98 % 0.04 in /  1.02 mm 0.0 W/m2 RA
00:16 54.9 °F /  12.7 °C 54.3 °F /  12.4 °C 29.37 in /  994.5 hPa ESE 5.8 mph /  9.3 km/h   98 % 0.05 in /  1.27 mm 27.5 W/m2 RA
00:21 54.9 °F /  12.7 °C 54.3 °F /  12.4 °C 29.37 in /  994.5 hPa NNW 5.8 mph /  9.3 km/h 5.8 mph /  9.3 km/h 98 % 0.05 in /  1.27 mm 0.0 W/m2 RA
00:26 54.9 °F /  12.7 °C 54.3 °F /  12.4 °C 29.37 in /  994.5 hPa ESE 1.2 mph /  1.9 km/h   98 % 0.05 in /  1.27 mm 0.0 W/m2
00:31 54.9 °F /  12.7 °C 54.6 °F /  12.6 °C 29.37 in /  994.5 hPa ESE 4.3 mph /  6.9 km/h 4.3 mph /  6.9 km/h 99 % 0.05 in /  1.27 mm 20.0 W/m2
00:36 54.9 °F /  12.7 °C 54.6 °F /  12.6 °C 29.38 in /  994.8 hPa SE 0.1 mph /  0.2 km/h   99 % 0.05 in /  1.27 mm 0.0 W/m2 OVC
00:41 54.9 °F /  12.7 °C 54.6 °F /  12.6 °C 29.38 in /  994.8 hPa SE 2.5 mph /  4 km/h 2.5 mph /  4 km/h 99 % 0.05 in /  1.27 mm 0.0 W/m2 OVC
00:46 54.7 °F /  12.6 °C 54.4 °F /  12.4 °C 29.38 in /  994.8 hPa ESE 4.6 mph /  7.4 km/h 4.6 mph /  7.4 km/h 99 % 0.05 in /  1.27 mm 20.0 W/m2 OVC
00:51 54.9 °F /  12.7 °C 54.3 °F /  12.4 °C 29.37 in /  994.5 hPa SE 4.6 mph /  7.4 km/h 4.6 mph /  7.4 km/h 98 % 0.05 in /  1.27 mm 0.0 W/m2 OVC
00:56 54.7 °F /  12.6 °C 54.4 °F /  12.4 °C 29.39 in /  995.1 hPa Calm     99 % 0.03 in /  0.76 mm 0.0 W/m2 OVC
01:01 54.7 °F /  12.6 °C 54.1 °F /  12.3 °C 29.36 in /  994.1 hPa SE 1.4 mph /  2.3 km/h 1.4 mph /  2.3 km/h 98 % 0.03 in /  0.76 mm 0.0 W/m2 RA
01:06 54.3 °F /  12.4 °C 53.8 °F /  12.1 °C 29.37 in /  994.5 hPa Calm     98 % 0.02 in /  0.51 mm 0.0 W/m2 RA
01:11 54.1 °F /  12.3 °C 53.6 °F /  12 °C 29.37 in /  994.5 hPa SE 4.8 mph /  7.7 km/h 4.8 mph /  7.7 km/h 98 % 0.02 in /  0.51 mm 20.0 W/m2 OVC
01:17 54.0 °F /  12.2 °C 53.4 °F /  11.9 °C 29.38 in /  994.8 hPa Calm     98 % 0.00 in /  0 mm 0.0 W/m2 OVC
01:22 53.4 °F /  11.9 °C 53.1 °F /  11.7 °C 29.39 in /  995.1 hPa Calm     99 % 0.00 in /  0 mm 22.5 W/m2 OVC
01:27 53.4 °F /  11.9 °C 53.4 °F /  11.9 °C 29.39 in /  995.1 hPa Calm     100 % 0.00 in /  0 mm 17.5 W/m2 OVC
01:32 53.4 °F /  11.9 °C 53.4 °F /  11.9 °C 29.37 in /  994.5 hPa SE 3.5 mph /  5.6 km/h 3.5 mph /  5.6 km/h 100 % 0.00 in /  0 mm 0.0 W/m2 OVC
01:37 53.4 °F /  11.9 °C 53.1 °F /  11.7 °C 29.39 in /  995.1 hPa SE 3.5 mph /  5.6 km/h   99 % 0.00 in /  0 mm 15.0 W/m2 OVC
01:42 53.6 °F /  12 °C 53.0 °F /  11.7 °C 29.39 in /  995.1 hPa SSE 3.5 mph /  5.6 km/h 3.5 mph /  5.6 km/h 98 % 0.00 in /  0 mm 15.0 W/m2 OVC
01:47 53.6 °F /  12 °C 52.8 °F /  11.6 °C 29.39 in /  995.1 hPa Calm     97 % 0.00 in /  0 mm 0.0 W/m2 OVC
01:52 53.4 °F /  11.9 °C 52.6 °F /  11.4 °C 29.39 in /  995.1 hPa SSE 1.2 mph /  1.9 km/h   97 % 0.00 in /  0 mm 27.5 W/m2 OVC
01:57 53.2 °F /  11.8 °C 52.7 °F /  11.5 °C 29.37 in /  994.5 hPa Calm     98 % 0.00 in /  0 mm 22.5 W/m2 OVC
02:03 53.1 °F /  11.7 °C 52.5 °F /  11.4 °C 29.39 in /  995.1 hPa Calm     98 % 0.00 in /  0 mm 17.5 W/m2 OVC
02:13 53.1 °F /  11.7 °C 52.8 °F /  11.6 °C 29.40 in /  995.5 hPa SE 1.2 mph /  1.9 km/h 1.2 mph /  1.9 km/h 99 % 0.00 in /  0 mm 0.0 W/m2 OVC
02:18 52.9 °F /  11.6 °C 52.3 °F /  11.3 °C 29.39 in /  995.1 hPa SE 2.3 mph /  3.7 km/h   98 % 0.00 in /  0 mm 15.0 W/m2 OVC
02:23 52.7 °F /  11.5 °C 52.4 °F /  11.3 °C 29.39 in /  995.1 hPa Calm     99 % 0.00 in /  0 mm 30.0 W/m2 OVC
02:28 52.7 °F /  11.5 °C 52.4 °F /  11.3 °C 29.39 in /  995.1 hPa Calm     99 % 0.00 in /  0 mm 0.0 W/m2 OVC
02:33 52.5 °F /  11.4 °C 52.2 °F /  11.2 °C 29.39 in /  995.1 hPa Calm     99 % 0.00 in /  0 mm 27.5 W/m2 OVC
02:38 52.5 °F /  11.4 °C 52.2 °F /  11.2 °C 29.39 in /  995.1 hPa Calm     99 % 0.00 in /  0 mm 15.0 W/m2 OVC
02:43 52.5 °F /  11.4 °C 52.2 °F /  11.2 °C 29.39 in /  995.1 hPa Calm     99 % 0.01 in /  0.25 mm 0.0 W/m2 RA
02:48 52.3 °F /  11.3 °C 52.3 °F /  11.3 °C 29.37 in /  994.5 hPa Calm     100 % 0.01 in /  0.25 mm 20.0 W/m2 RA
02:54 52.3 °F /  11.3 °C 52.3 °F /  11.3 °C 29.36 in /  994.1 hPa Calm     100 % 0.01 in /  0.25 mm 30.0 W/m2
02:59 52.2 °F /  11.2 °C 52.2 °F /  11.2 °C 29.37 in /  994.5 hPa Calm     100 % 0.01 in /  0.25 mm 0.0 W/m2 OVC
03:04 52.3 °F /  11.3 °C 52.3 °F /  11.3 °C 29.37 in /  994.5 hPa Calm     100 % 0.01 in /  0.25 mm 15.0 W/m2 OVC
03:09 52.2 °F /  11.2 °C 52.2 °F /  11.2 °C 29.38 in /  994.8 hPa Calm     100 % 0.02 in /  0.51 mm 30.0 W/m2 RA
03:14 52.2 °F /  11.2 °C 52.2 °F /  11.2 °C 29.38 in /  994.8 hPa Calm     100 % 0.02 in /  0.51 mm 0.0 W/m2 RA
03:19 52.2 °F /  11.2 °C 52.2 °F /  11.2 °C 29.38 in /  994.8 hPa Calm     100 % 0.02 in /  0.51 mm 30.0 W/m2
03:24 52.2 °F /  11.2 °C 52.2 °F /  11.2 °C 29.38 in /  994.8 hPa Calm     100 % 0.02 in /  0.51 mm 0.0 W/m2 OVC
03:29 52.2 °F /  11.2 °C 52.2 °F /  11.2 °C 29.39 in /  995.1 hPa Calm     100 % 0.02 in /  0.51 mm 0.0 W/m2 RA
03:34 52.2 °F /  11.2 °C 52.2 °F /  11.2 °C 29.39 in /  995.1 hPa Calm     100 % 0.02 in /  0.51 mm 20.0 W/m2 RA
03:39 52.2 °F /  11.2 °C 52.2 °F /  11.2 °C 29.39 in /  995.1 hPa Calm     100 % 0.02 in /  0.51 mm 0.0 W/m2
03:45 52.2 °F /  11.2 °C 52.2 °F /  11.2 °C 29.39 in /  995.1 hPa Calm     100 % 0.02 in /  0.51 mm 0.0 W/m2 OVC
03:50 52.2 °F /  11.2 °C 52.2 °F /  11.2 °C 29.39 in /  995.1 hPa Calm     100 % 0.02 in /  0.51 mm 15.0 W/m2 OVC
03:55 52.0 °F /  11.1 °C 52.0 °F /  11.1 °C 29.39 in /  995.1 hPa Calm     100 % 0.02 in /  0.51 mm 0.0 W/m2 OVC
04:00 52.2 °F /  11.2 °C 52.2 °F /  11.2 °C 29.39 in /  995.1 hPa Calm     100 % 0.02 in /  0.51 mm 0.0 W/m2 RA
04:05 52.0 °F /  11.1 °C 52.0 °F /  11.1 °C 29.39 in /  995.1 hPa Calm     100 % 0.02 in /  0.51 mm 0.0 W/m2 RA
04:14 52.0 °F /  11.1 °C 52.0 °F /  11.1 °C 29.39 in /  995.1 hPa Calm     100 % 0.02 in /  0.51 mm 0.0 W/m2 OVC
04:19 52.0 °F /  11.1 °C 52.0 °F /  11.1 °C 29.39 in /  995.1 hPa Calm     100 % 0.02 in /  0.51 mm 0.0 W/m2 OVC
04:24 52.0 °F /  11.1 °C 52.0 °F /  11.1 °C 29.39 in /  995.1 hPa Calm     100 % 0.02 in /  0.51 mm 0.0 W/m2 OVC
04:30 52.0 °F /  11.1 °C 52.0 °F /  11.1 °C 29.39 in /  995.1 hPa Calm     100 % 0.01 in /  0.25 mm 0.0 W/m2 OVC
04:35 52.2 °F /  11.2 °C 52.2 °F /  11.2 °C 29.40 in /  995.5 hPa Calm     100 % 0.02 in /  0.51 mm 0.0 W/m2 RA
04:40 52.2 °F /  11.2 °C 52.2 °F /  11.2 °C 29.40 in /  995.5 hPa Calm     100 % 0.02 in /  0.51 mm 0.0 W/m2 RA
04:45 52.0 °F /  11.1 °C 52.0 °F /  11.1 °C 29.40 in /  995.5 hPa Calm     100 % 0.02 in /  0.51 mm 0.0 W/m2
04:50 52.2 °F /  11.2 °C 52.2 °F /  11.2 °C 29.40 in /  995.5 hPa Calm     100 % 0.02 in /  0.51 mm 0.0 W/m2 RA
04:55 52.2 °F /  11.2 °C 52.2 °F /  11.2 °C 29.40 in /  995.5 hPa Calm     100 % 0.02 in /  0.51 mm 0.0 W/m2 RA
05:00 51.8 °F /  11 °C 51.8 °F /  11 °C 29.40 in /  995.5 hPa Calm     100 % 0.02 in /  0.51 mm 35.0 W/m2 RA
05:05 51.6 °F /  10.9 °C 51.6 °F /  10.9 °C 29.40 in /  995.5 hPa Calm     100 % 0.02 in /  0.51 mm 0.0 W/m2
05:10 51.4 °F /  10.8 °C 51.4 °F /  10.8 °C 29.39 in /  995.1 hPa Calm     100 % 0.02 in /  0.51 mm 0.0 W/m2 OVC
05:15 51.4 °F /  10.8 °C 51.4 °F /  10.8 °C 29.40 in /  995.5 hPa Calm     100 % 0.02 in /  0.51 mm 32.5 W/m2 OVC
05:20 51.6 °F /  10.9 °C 51.6 °F /  10.9 °C 29.41 in /  995.8 hPa Calm     100 % 0.02 in /  0.51 mm 0.0 W/m2 OVC
05:25 51.6 °F /  10.9 °C 51.6 °F /  10.9 °C 29.42 in /  996.2 hPa Calm     100 % 0.02 in /  0.51 mm 0.0 W/m2 OVC
05:30 51.6 °F /  10.9 °C 51.6 °F /  10.9 °C 29.42 in /  996.2 hPa Calm     100 % 0.02 in /  0.51 mm 17.5 W/m2 OVC
05:35 51.6 °F /  10.9 °C 51.6 °F /  10.9 °C 29.42 in /  996.2 hPa Calm     100 % 0.01 in /  0.25 mm 0.0 W/m2 OVC
05:40 51.6 °F /  10.9 °C 51.6 °F /  10.9 °C 29.44 in /  996.8 hPa Calm     100 % 0.01 in /  0.25 mm 0.0 W/m2 OVC
05:45 51.8 °F /  11 °C 51.8 °F /  11 °C 29.44 in /  996.8 hPa Calm     100 % 0.01 in /  0.25 mm 15.0 W/m2 OVC
05:50 51.8 °F /  11 °C 51.8 °F /  11 °C 29.44 in /  996.8 hPa Calm     100 % 0.00 in /  0 mm 0.0 W/m2 OVC
05:55 51.8 °F /  11 °C 51.8 °F /  11 °C 29.45 in /  997.2 hPa Calm     100 % 0.00 in /  0 mm 22.5 W/m2 OVC
06:00 51.6 °F /  10.9 °C 51.6 °F /  10.9 °C 29.44 in /  996.8 hPa Calm     100 % 0.00 in /  0 mm 32.5 W/m2 OVC
06:05 51.3 °F /  10.7 °C 51.3 °F /  10.7 °C 29.45 in /  997.2 hPa Calm     100 % 0.00 in /  0 mm 0.0 W/m2 OVC
06:10 51.4 °F /  10.8 °C 51.4 °F /  10.8 °C 29.44 in /  996.8 hPa Calm     100 % 0.00 in /  0 mm 17.5 W/m2 OVC
06:15 51.4 °F /  10.8 °C 51.4 °F /  10.8 °C 29.45 in /  997.2 hPa Calm     100 % 0.00 in /  0 mm 35.0 W/m2 OVC
06:21 51.6 °F /  10.9 °C 51.6 °F /  10.9 °C 29.45 in /  997.2 hPa Calm     100 % 0.00 in /  0 mm 0.0 W/m2 OVC
06:26 51.8 °F /  11 °C 51.8 °F /  11 °C 29.45 in /  997.2 hPa Calm     100 % 0.00 in /  0 mm 20.0 W/m2 OVC
06:31 51.8 °F /  11 °C 51.8 °F /  11 °C 29.45 in /  997.2 hPa Calm     100 % 0.00 in /  0 mm 17.5 W/m2 OVC
06:36 52.0 °F /  11.1 °C 52.0 °F /  11.1 °C 29.45 in /  997.2 hPa Calm     100 % 0.00 in /  0 mm 0.0 W/m2 OVC
06:41 52.0 °F /  11.1 °C 52.0 °F /  11.1 °C 29.45 in /  997.2 hPa Calm     100 % 0.00 in /  0 mm 25.0 W/m2 OVC
06:46 52.2 °F /  11.2 °C 52.2 °F /  11.2 °C 29.46 in /  997.5 hPa Calm     100 % 0.00 in /  0 mm 0.0 W/m2 OVC
06:51 52.0 °F /  11.1 °C 52.0 °F /  11.1 °C 29.46 in /  997.5 hPa Calm     100 % 0.00 in /  0 mm 0.0 W/m2 OVC
06:56 52.0 °F /  11.1 °C 52.0 °F /  11.1 °C 29.48 in /  998.2 hPa Calm     100 % 0.00 in /  0 mm 17.5 W/m2 OVC
07:01 52.0 °F /  11.1 °C 52.0 °F /  11.1 °C 29.47 in /  997.9 hPa Calm     100 % 0.00 in /  0 mm 0.0 W/m2 OVC
07:06 52.2 °F /  11.2 °C 52.2 °F /  11.2 °C 29.47 in /  997.9 hPa Calm     100 % 0.00 in /  0 mm 0.0 W/m2 OVC
07:11 52.2 °F /  11.2 °C 52.2 °F /  11.2 °C 29.48 in /  998.2 hPa Calm     100 % 0.00 in /  0 mm 42.5 W/m2 OVC
07:16 52.2 °F /  11.2 °C 52.2 °F /  11.2 °C 29.48 in /  998.2 hPa Calm     100 % 0.00 in /  0 mm 0.0 W/m2 OVC
07:21 52.2 °F /  11.2 °C 52.2 °F /  11.2 °C 29.49 in /  998.5 hPa Calm     100 % 0.00 in /  0 mm 20.0 W/m2 OVC
07:26 52.2 °F /  11.2 °C 52.2 °F /  11.2 °C 29.49 in /  998.5 hPa Calm     100 % 0.00 in /  0 mm 40.0 W/m2 OVC
07:31 52.2 °F /  11.2 °C 52.2 °F /  11.2 °C 29.48 in /  998.2 hPa Calm     100 % 0.00 in /  0 mm 0.0 W/m2 OVC
07:36 52.3 °F /  11.3 °C 52.3 °F /  11.3 °C 29.49 in /  998.5 hPa Calm     100 % 0.00 in /  0 mm 17.5 W/m2 OVC
07:41 52.3 °F /  11.3 °C 52.3 °F /  11.3 °C 29.50 in /  998.9 hPa Calm     100 % 0.00 in /  0 mm 35.0 W/m2 CLR
07:46 52.3 °F /  11.3 °C 52.3 °F /  11.3 °C 29.50 in /  998.9 hPa Calm     100 % 0.00 in /  0 mm 27.5 W/m2 CLR
07:51 52.5 °F /  11.4 °C 52.5 °F /  11.4 °C 29.49 in /  998.5 hPa Calm     100 % 0.00 in /  0 mm 17.5 W/m2 CLR
07:56 52.5 °F /  11.4 °C 52.5 °F /  11.4 °C 29.50 in /  998.9 hPa Calm     100 % 0.00 in /  0 mm 32.5 W/m2 CLR
08:01 52.7 °F /  11.5 °C 52.7 °F /  11.5 °C 29.50 in /  998.9 hPa Calm     100 % 0.01 in /  0.25 mm 0.2 W/m2 RA
08:07 52.7 °F /  11.5 °C 52.7 °F /  11.5 °C 29.51 in /  999.2 hPa Calm     100 % 0.02 in /  0.51 mm 22.5 W/m2 RA
08:12 52.5 °F /  11.4 °C 52.5 °F /  11.4 °C 29.51 in /  999.2 hPa Calm     100 % 0.03 in /  0.76 mm 22.5 W/m2 RA
08:17 52.5 °F /  11.4 °C 52.5 °F /  11.4 °C 29.51 in /  999.2 hPa Calm     100 % 0.04 in /  1.02 mm 0.1 W/m2 RA
08:22 52.7 °F /  11.5 °C 52.7 °F /  11.5 °C 29.51 in /  999.2 hPa Calm     100 % 0.05 in /  1.27 mm 17.5 W/m2 RA
08:27 52.7 °F /  11.5 °C 52.7 °F /  11.5 °C 29.52 in /  999.5 hPa WNW 2.3 mph /  3.7 km/h   100 % 0.05 in /  1.27 mm 0.1 W/m2 RA
08:31 52.7 °F /  11.5 °C 52.7 °F /  11.5 °C 29.52 in /  999.5 hPa WNW 2.3 mph /  3.7 km/h 2.3 mph /  3.7 km/h 100 % 0.06 in /  1.52 mm 0.0 W/m2 RA
08:36 52.7 °F /  11.5 °C 52.7 °F /  11.5 °C 29.52 in /  999.5 hPa WSW 5.8 mph /  9.3 km/h 5.8 mph /  9.3 km/h 100 % 0.06 in /  1.52 mm 22.5 W/m2 RA
08:41 52.9 °F /  11.6 °C 52.9 °F /  11.6 °C 29.51 in /  999.2 hPa SW 1.5 mph /  2.4 km/h 1.5 mph /  2.4 km/h 100 % 0.07 in /  1.78 mm 22.5 W/m2 RA
08:46 52.9 °F /  11.6 °C 52.9 °F /  11.6 °C 29.53 in /  999.9 hPa SW 1.2 mph /  1.9 km/h   100 % 0.08 in /  2.03 mm 50.0 W/m2 RA
08:51 53.1 °F /  11.7 °C 53.1 °F /  11.7 °C 29.52 in /  999.5 hPa ESE 1.2 mph /  1.9 km/h   100 % 0.08 in /  2.03 mm 22.5 W/m2 RA
08:56 53.1 °F /  11.7 °C 53.1 °F /  11.7 °C 29.54 in /  1000.2 hPa Calm     100 % 0.09 in /  2.29 mm 1.6 W/m2 RA
09:01 53.2 °F /  11.8 °C 53.2 °F /  11.8 °C 29.54 in /  1000.2 hPa Calm     100 % 0.08 in /  2.03 mm 52.5 W/m2 RA
09:06 53.4 °F /  11.9 °C 53.4 °F /  11.9 °C 29.54 in /  1000.2 hPa Calm     100 % 0.07 in /  1.78 mm 22.5 W/m2 OVC
09:11 53.6 °F /  12 °C 53.6 °F /  12 °C 29.55 in /  1000.6 hPa Calm     100 % 0.05 in /  1.27 mm 3.1 W/m2 OVC
09:16 53.6 °F /  12 °C 53.6 °F /  12 °C 29.55 in /  1000.6 hPa Calm     100 % 0.05 in /  1.27 mm 47.5 W/m2 OVC
09:21 53.8 °F /  12.1 °C 53.8 °F /  12.1 °C 29.55 in /  1000.6 hPa Calm     100 % 0.04 in /  1.02 mm 52.5 W/m2 OVC
09:26 54.0 °F /  12.2 °C 54.0 °F /  12.2 °C 29.56 in /  1000.9 hPa Calm     100 % 0.03 in /  0.76 mm 2.4 W/m2 OVC
09:31 54.0 °F /  12.2 °C 54.0 °F /  12.2 °C 29.56 in /  1000.9 hPa South 4.6 mph /  7.4 km/h   100 % 0.02 in /  0.51 mm 75.0 W/m2 OVC
09:36 54.0 °F /  12.2 °C 54.0 °F /  12.2 °C 29.55 in /  1000.6 hPa Calm     100 % 0.02 in /  0.51 mm 52.5 W/m2 OVC
09:41 54.0 °F /  12.2 °C 54.0 °F /  12.2 °C 29.56 in /  1000.9 hPa ESE 2.3 mph /  3.7 km/h 2.3 mph /  3.7 km/h 100 % 0.02 in /  0.51 mm 7.1 W/m2 RA
09:47 54.0 °F /  12.2 °C 54.0 °F /  12.2 °C 29.57 in /  1001.2 hPa ESE 2.3 mph /  3.7 km/h 2.3 mph /  3.7 km/h 100 % 0.02 in /  0.51 mm 77.5 W/m2 RA
09:52 54.0 °F /  12.2 °C 54.0 °F /  12.2 °C 29.57 in /  1001.2 hPa WSW 4.6 mph /  7.4 km/h 4.6 mph /  7.4 km/h 100 % 0.01 in /  0.25 mm 14.7 W/m2 OVC
09:57 54.0 °F /  12.2 °C 54.0 °F /  12.2 °C 29.57 in /  1001.2 hPa ESE 0.6 mph /  1 km/h 0.6 mph /  1 km/h 100 % 0.01 in /  0.25 mm 14.1 W/m2 OVC
10:02 53.8 °F /  12.1 °C 53.8 °F /  12.1 °C 29.58 in /  1001.6 hPa WNW 5.8 mph /  9.3 km/h 5.8 mph /  9.3 km/h 100 % 0.01 in /  0.25 mm 40.0 W/m2 OVC
10:07 53.8 °F /  12.1 °C 53.8 °F /  12.1 °C 29.58 in /  1001.6 hPa SW 3.7 mph /  6 km/h 3.7 mph /  6 km/h 100 % 0.01 in /  0.25 mm 13.8 W/m2 OVC
10:12 53.6 °F /  12 °C 53.6 °F /  12 °C 29.58 in /  1001.6 hPa NE 1.2 mph /  1.9 km/h 1.2 mph /  1.9 km/h 100 % 0.01 in /  0.25 mm 18.8 W/m2 OVC
10:17 53.6 °F /  12 °C 53.6 °F /  12 °C 29.57 in /  1001.2 hPa SSE 2.1 mph /  3.4 km/h 2.1 mph /  3.4 km/h 100 % 0.01 in /  0.25 mm 80.0 W/m2 OVC
10:22 53.6 °F /  12 °C 53.6 °F /  12 °C 29.58 in /  1001.6 hPa West 5.8 mph /  9.3 km/h 5.8 mph /  9.3 km/h 100 % 0.01 in /  0.25 mm 16.0 W/m2 OVC
10:27 53.6 °F /  12 °C 53.6 °F /  12 °C 29.59 in /  1001.9 hPa South 10.4 mph /  16.7 km/h 10.4 mph /  16.7 km/h 100 % 0.01 in /  0.25 mm 14.3 W/m2 OVC
10:29 53.4 °F /  11.9 °C 53.4 °F /  11.9 °C 29.60 in /  1002.3 hPa SSE 8.1 mph /  13 km/h 8.1 mph /  13 km/h 100 % 0.01 in /  0.25 mm 52.5 W/m2 OVC
10:34 53.4 °F /  11.9 °C 53.4 °F /  11.9 °C 29.60 in /  1002.3 hPa Calm     100 % 0.02 in /  0.51 mm 23.9 W/m2 RA
10:39 53.6 °F /  12 °C 53.6 °F /  12 °C 29.60 in /  1002.3 hPa West 1.0 mph /  1.6 km/h 1.0 mph /  1.6 km/h 100 % 0.01 in /  0.25 mm 24.6 W/m2 RA
10:44 53.4 °F /  11.9 °C 53.4 °F /  11.9 °C 29.61 in /  1002.6 hPa WSW 9.2 mph /  14.8 km/h 9.2 mph /  14.8 km/h 100 % 0.01 in /  0.25 mm 50.0 W/m2 OVC
10:54 53.6 °F /  12 °C 53.6 °F /  12 °C 29.61 in /  1002.6 hPa Calm     100 % 0.02 in /  0.51 mm 19.9 W/m2 RA
10:59 53.4 °F /  11.9 °C 53.4 °F /  11.9 °C 29.62 in /  1002.9 hPa WSW 2.6 mph /  4.2 km/h 2.6 mph /  4.2 km/h 100 % 0.02 in /  0.51 mm 35.0 W/m2 RA
11:04 53.4 °F /  11.9 °C 53.4 °F /  11.9 °C 29.62 in /  1002.9 hPa West 1.2 mph /  1.9 km/h 1.2 mph /  1.9 km/h 100 % 0.02 in /  0.51 mm 23.3 W/m2 OVC
11:09 53.6 °F /  12 °C 53.6 °F /  12 °C 29.61 in /  1002.6 hPa Calm     100 % 0.02 in /  0.51 mm 37.0 W/m2 OVC
11:14 53.6 °F /  12 °C 53.6 °F /  12 °C 29.62 in /  1002.9 hPa SW 1.5 mph /  2.4 km/h 1.5 mph /  2.4 km/h 100 % 0.02 in /  0.51 mm 62.5 W/m2 OVC
11:19 53.4 °F /  11.9 °C 53.4 °F /  11.9 °C 29.62 in /  1002.9 hPa SW 1.2 mph /  1.9 km/h 1.2 mph /  1.9 km/h 100 % 0.02 in /  0.51 mm 26.2 W/m2 OVC
11:25 53.2 °F /  11.8 °C 53.2 °F /  11.8 °C 29.62 in /  1002.9 hPa SSE 1.5 mph /  2.4 km/h 1.5 mph /  2.4 km/h 100 % 0.02 in /  0.51 mm 30.0 W/m2 OVC
11:30 53.4 °F /  11.9 °C 53.4 °F /  11.9 °C 29.62 in /  1002.9 hPa SSW 2.3 mph /  3.7 km/h 2.3 mph /  3.7 km/h 100 % 0.02 in /  0.51 mm 80.0 W/m2 OVC
11:35 53.4 °F /  11.9 °C 53.4 °F /  11.9 °C 29.63 in /  1003.3 hPa South 5.8 mph /  9.3 km/h 5.8 mph /  9.3 km/h 100 % 0.01 in /  0.25 mm 56.5 W/m2 OVC
11:40 53.4 °F /  11.9 °C 53.4 °F /  11.9 °C 29.63 in /  1003.3 hPa SW 6.9 mph /  11.1 km/h 6.9 mph /  11.1 km/h 100 % 0.01 in /  0.25 mm 47.4 W/m2 OVC
11:45 53.2 °F /  11.8 °C 53.2 °F /  11.8 °C 29.64 in /  1003.6 hPa WNW 5.8 mph /  9.3 km/h 5.8 mph /  9.3 km/h 100 % 0.01 in /  0.25 mm 82.5 W/m2 OVC
11:50 53.4 °F /  11.9 °C 53.4 °F /  11.9 °C 29.64 in /  1003.6 hPa SSW 8.1 mph /  13 km/h 8.1 mph /  13 km/h 100 % 0.01 in /  0.25 mm 19.5 W/m2 OVC
11:55 53.1 °F /  11.7 °C 53.1 °F /  11.7 °C 29.64 in /  1003.6 hPa West 11.5 mph /  18.5 km/h 11.5 mph /  18.5 km/h 100 % 0.00 in /  0 mm 95.0 W/m2 OVC
12:00 53.1 °F /  11.7 °C 53.1 °F /  11.7 °C 29.65 in /  1003.9 hPa SW 11.9 mph /  19.2 km/h 11.9 mph /  19.2 km/h 100 % 0.00 in /  0 mm 87.5 W/m2 OVC
12:05 53.2 °F /  11.8 °C 53.2 °F /  11.8 °C 29.66 in /  1004.3 hPa WSW 8.1 mph /  13 km/h 8.1 mph /  13 km/h 100 % 0.00 in /  0 mm 33.3 W/m2 OVC
12:10 53.1 °F /  11.7 °C 53.1 °F /  11.7 °C 29.65 in /  1003.9 hPa SSE 4.0 mph /  6.4 km/h 4.0 mph /  6.4 km/h 100 % 0.00 in /  0 mm 110.0 W/m2 OVC
12:15 53.1 °F /  11.7 °C 53.1 °F /  11.7 °C 29.66 in /  1004.3 hPa NNW 6.9 mph /  11.1 km/h 6.9 mph /  11.1 km/h 100 % 0.00 in /  0 mm 85.0 W/m2 OVC
12:20 53.4 °F /  11.9 °C 53.4 °F /  11.9 °C 29.66 in /  1004.3 hPa WNW 8.1 mph /  13 km/h   100 % 0.00 in /  0 mm 132.5 W/m2 OVC
12:25 53.8 °F /  12.1 °C 53.5 °F /  11.9 °C 29.65 in /  1003.9 hPa Calm     99 % 0.00 in /  0 mm 235.0 W/m2 BKN
12:30 54.5 °F /  12.5 °C 53.9 °F /  12.2 °C 29.65 in /  1003.9 hPa West 3.5 mph /  5.6 km/h 3.5 mph /  5.6 km/h 98 % 0.00 in /  0 mm 282.5 W/m2 BKN
12:35 54.9 °F /  12.7 °C 54.0 °F /  12.2 °C 29.64 in /  1003.6 hPa WSW 1.2 mph /  1.9 km/h 1.2 mph /  1.9 km/h 97 % 0.00 in /  0 mm 215.0 W/m2 BKN
12:40 54.9 °F /  12.7 °C 54.0 °F /  12.2 °C 29.65 in /  1003.9 hPa East 1.2 mph /  1.9 km/h   97 % 0.00 in /  0 mm 165.0 W/m2 BKN
12:45 54.9 °F /  12.7 °C 54.0 °F /  12.2 °C 29.65 in /  1003.9 hPa East 1.2 mph /  1.9 km/h   97 % 0.00 in /  0 mm 165.0 W/m2 BKN
12:50 54.5 °F /  12.5 °C 53.7 °F /  12.1 °C 29.65 in /  1003.9 hPa NW 1.2 mph /  1.9 km/h 1.2 mph /  1.9 km/h 97 % 0.00 in /  0 mm 122.5 W/m2 OVC
12:55 54.3 °F /  12.4 °C 53.5 °F /  11.9 °C 29.67 in /  1004.6 hPa WNW 3.5 mph /  5.6 km/h 3.5 mph /  5.6 km/h 97 % 0.00 in /  0 mm 120.0 W/m2 OVC
13:00 54.5 °F /  12.5 °C 53.4 °F /  11.9 °C 29.66 in /  1004.3 hPa WNW 3.6 mph /  5.8 km/h   96 % 0.00 in /  0 mm 57.8 W/m2 OVC
13:06 54.3 °F /  12.4 °C 53.2 °F /  11.8 °C 29.67 in /  1004.6 hPa WSW 8.1 mph /  13 km/h 8.1 mph /  13 km/h 96 % 0.00 in /  0 mm 70.0 W/m2 OVC
13:11 54.3 °F /  12.4 °C 53.2 °F /  11.8 °C 29.67 in /  1004.6 hPa WSW 3.7 mph /  6 km/h 3.7 mph /  6 km/h 96 % 0.00 in /  0 mm 162.5 W/m2 BKN
13:16 54.5 °F /  12.5 °C 53.7 °F /  12.1 °C 29.67 in /  1004.6 hPa Calm     97 % 0.00 in /  0 mm 89.4 W/m2 OVC
13:21 55.0 °F /  12.8 °C 53.6 °F /  12 °C 29.67 in /  1004.6 hPa Calm     95 % 0.00 in /  0 mm 187.5 W/m2 BKN
13:26 55.4 °F /  13 °C 54.0 °F /  12.2 °C 29.68 in /  1005 hPa WSW 2.3 mph /  3.7 km/h   95 % 0.00 in /  0 mm 175.0 W/m2 BKN
13:31 55.2 °F /  12.9 °C 54.4 °F /  12.4 °C 29.67 in /  1004.6 hPa Calm     97 % 0.00 in /  0 mm 82.0 W/m2 OVC
13:36 55.0 °F /  12.8 °C 53.9 °F /  12.2 °C 29.67 in /  1004.6 hPa Calm     96 % 0.00 in /  0 mm 120.0 W/m2 OVC
13:41 54.9 °F /  12.7 °C 53.7 °F /  12.1 °C 29.67 in /  1004.6 hPa Calm     96 % 0.00 in /  0 mm 95.0 W/m2 OVC
13:46 54.5 °F /  12.5 °C 53.4 °F /  11.9 °C 29.67 in /  1004.6 hPa Calm     96 % 0.00 in /  0 mm 150.0 W/m2 OVC
13:51 54.9 °F /  12.7 °C 53.5 °F /  11.9 °C 29.68 in /  1005 hPa Calm     95 % 0.00 in /  0 mm 117.5 W/m2 OVC
13:56 54.9 °F /  12.7 °C 53.2 °F /  11.8 °C 29.68 in /  1005 hPa SW 3.7 mph /  6 km/h 3.7 mph /  6 km/h 94 % 0.00 in /  0 mm 49.7 W/m2 OVC
14:01 54.5 °F /  12.5 °C 53.1 °F /  11.7 °C 29.68 in /  1005 hPa Calm     95 % 0.00 in /  0 mm 67.5 W/m2 OVC
14:06 54.5 °F /  12.5 °C 53.1 °F /  11.7 °C 29.67 in /  1004.6 hPa WSW 1.2 mph /  1.9 km/h   95 % 0.00 in /  0 mm 67.5 W/m2 OVC
14:11 54.1 °F /  12.3 °C 52.7 °F /  11.5 °C 29.67 in /  1004.6 hPa Calm     95 % 0.00 in /  0 mm 21.7 W/m2 OVC
14:16 54.0 °F /  12.2 °C 52.8 °F /  11.6 °C 29.68 in /  1005 hPa West 4.6 mph /  7.4 km/h 4.6 mph /  7.4 km/h 96 % 0.00 in /  0 mm 80.0 W/m2 OVC
14:21 54.3 °F /  12.4 °C 52.9 °F /  11.6 °C 29.69 in /  1005.3 hPa Calm     95 % 0.00 in /  0 mm 117.5 W/m2 OVC
14:26 54.5 °F /  12.5 °C 52.8 °F /  11.6 °C 29.68 in /  1005 hPa Calm     94 % 0.00 in /  0 mm 38.3 W/m2 OVC
14:31 54.3 °F /  12.4 °C 52.6 °F /  11.4 °C 29.67 in /  1004.6 hPa WSW 2.3 mph /  3.7 km/h 2.3 mph /  3.7 km/h 94 % 0.00 in /  0 mm 120.0 W/m2 OVC
14:37 54.7 °F /  12.6 °C 52.7 °F /  11.5 °C 29.68 in /  1005 hPa West 1.4 mph /  2.3 km/h 1.4 mph /  2.3 km/h 93 % 0.00 in /  0 mm 162.5 W/m2 OVC
14:42 55.0 °F /  12.8 °C 53.3 °F /  11.8 °C 29.67 in /  1004.6 hPa Calm     94 % 0.00 in /  0 mm 79.4 W/m2 OVC
14:47 55.2 °F /  12.9 °C 54.1 °F /  12.3 °C 29.68 in /  1005 hPa Calm     96 % 0.00 in /  0 mm 127.5 W/m2 OVC
14:52 54.9 °F /  12.7 °C 53.5 °F /  11.9 °C 29.68 in /  1005 hPa Calm     95 % 0.00 in /  0 mm 16.4 W/m2 OVC
14:57 54.0 °F /  12.2 °C 52.6 °F /  11.4 °C 29.69 in /  1005.3 hPa Calm     95 % 0.00 in /  0 mm 17.5 W/m2 OVC
15:02 53.6 °F /  12 °C 51.9 °F /  11.1 °C 29.68 in /  1005 hPa West 1.2 mph /  1.9 km/h   94 % 0.00 in /  0 mm 60.0 W/m2 OVC
15:07 53.4 °F /  11.9 °C 51.7 °F /  10.9 °C 29.69 in /  1005.3 hPa Calm     94 % 0.00 in /  0 mm 37.9 W/m2 OVC
15:12 53.6 °F /  12 °C 52.2 °F /  11.2 °C 29.69 in /  1005.3 hPa West 1.9 mph /  3.1 km/h   95 % 0.00 in /  0 mm 36.0 W/m2 OVC
15:17 53.6 °F /  12 °C 51.6 °F /  10.9 °C 29.69 in /  1005.3 hPa West 2.1 mph /  3.4 km/h 2.1 mph /  3.4 km/h 93 % 0.00 in /  0 mm 72.5 W/m2 OVC
15:22 53.6 °F /  12 °C 51.6 °F /  10.9 °C 29.70 in /  1005.6 hPa WSW 3.7 mph /  6 km/h 3.7 mph /  6 km/h 93 % 0.00 in /  0 mm 35.7 W/m2 OVC
15:27 53.6 °F /  12 °C 51.9 °F /  11.1 °C 29.69 in /  1005.3 hPa NW 1.7 mph /  2.7 km/h 1.7 mph /  2.7 km/h 94 % 0.00 in /  0 mm 36.6 W/m2 OVC
15:32 53.6 °F /  12 °C 51.9 °F /  11.1 °C 29.69 in /  1005.3 hPa Calm     94 % 0.00 in /  0 mm 90.0 W/m2 OVC
15:37 53.4 °F /  11.9 °C 51.7 °F /  10.9 °C 29.70 in /  1005.6 hPa ESE 0.6 mph /  1 km/h 0.6 mph /  1 km/h 94 % 0.00 in /  0 mm 25.0 W/m2 OVC
15:42 53.2 °F /  11.8 °C 51.6 °F /  10.9 °C 29.68 in /  1005 hPa Calm     94 % 0.00 in /  0 mm 28.6 W/m2 OVC
15:47 53.4 °F /  11.9 °C 52.0 °F /  11.1 °C 29.69 in /  1005.3 hPa West 7.5 mph /  12.1 km/h 7.5 mph /  12.1 km/h 95 % 0.00 in /  0 mm 112.5 W/m2 OVC
15:52 53.2 °F /  11.8 °C 52.1 °F /  11.2 °C 29.69 in /  1005.3 hPa Calm     96 % 0.00 in /  0 mm 27.5 W/m2 OVC
15:57 53.1 °F /  11.7 °C 51.4 °F /  10.8 °C 29.70 in /  1005.6 hPa Calm     94 % 0.00 in /  0 mm 20.4 W/m2 OVC
16:02 53.1 °F /  11.7 °C 51.1 °F /  10.6 °C 29.71 in /  1006 hPa Calm     93 % 0.00 in /  0 mm 13.5 W/m2 OVC
16:08 52.7 °F /  11.5 °C 51.0 °F /  10.6 °C 29.71 in /  1006 hPa South 1.2 mph /  1.9 km/h   94 % 0.00 in /  0 mm 8.4 W/m2 OVC
16:13 52.7 °F /  11.5 °C 51.0 °F /  10.6 °C 29.70 in /  1005.6 hPa WNW 6.9 mph /  11.1 km/h 6.9 mph /  11.1 km/h 94 % 0.00 in /  0 mm 62.5 W/m2 OVC
16:18 52.5 °F /  11.4 °C 50.6 °F /  10.3 °C 29.70 in /  1005.6 hPa WNW 1.2 mph /  1.9 km/h 1.2 mph /  1.9 km/h 93 % 0.00 in /  0 mm 12.2 W/m2 OVC
16:23 52.5 °F /  11.4 °C 50.6 °F /  10.3 °C 29.70 in /  1005.6 hPa SE 0.8 mph /  1.3 km/h 0.8 mph /  1.3 km/h 93 % 0.00 in /  0 mm 11.0 W/m2 OVC
16:28 52.5 °F /  11.4 °C 50.6 °F /  10.3 °C 29.71 in /  1006 hPa Calm     93 % 0.00 in /  0 mm 65.0 W/m2 OVC
16:33 52.3 °F /  11.3 °C 50.4 °F /  10.2 °C 29.72 in /  1006.3 hPa Calm     93 % 0.00 in /  0 mm 9.5 W/m2 OVC
16:38 52.3 °F /  11.3 °C 50.1 °F /  10.1 °C 29.73 in /  1006.7 hPa SSW 1.2 mph /  1.9 km/h 1.2 mph /  1.9 km/h 92 % 0.00 in /  0 mm 9.0 W/m2 OVC
16:43 52.2 °F /  11.2 °C 49.9 °F /  9.9 °C 29.73 in /  1006.7 hPa Calm     92 % 0.00 in /  0 mm 62.5 W/m2 OVC
16:48 52.0 °F /  11.1 °C 50.0 °F /  10 °C 29.73 in /  1006.7 hPa Calm     93 % 0.00 in /  0 mm 10.9 W/m2 OVC
16:53 52.0 °F /  11.1 °C 50.3 °F /  10.2 °C 29.73 in /  1006.7 hPa Calm     94 % 0.00 in /  0 mm 7.9 W/m2 OVC
16:58 51.3 °F /  10.7 °C 49.0 °F /  9.4 °C 29.73 in /  1006.7 hPa Calm     92 % 0.00 in /  0 mm 52.5 W/m2 OVC
17:03 50.9 °F /  10.5 °C 48.7 °F /  9.3 °C 29.72 in /  1006.3 hPa Calm     92 % 0.00 in /  0 mm 4.4 W/m2 CLR
17:08 50.5 °F /  10.3 °C 48.3 °F /  9.1 °C 29.72 in /  1006.3 hPa Calm     92 % 0.00 in /  0 mm 55.0 W/m2 CLR
17:13 50.5 °F /  10.3 °C 48.3 °F /  9.1 °C 29.73 in /  1006.7 hPa Calm     92 % 0.00 in /  0 mm 47.5 W/m2 CLR
17:18 50.4 °F /  10.2 °C 48.1 °F /  8.9 °C 29.72 in /  1006.3 hPa Calm     92 % 0.00 in /  0 mm 1.0 W/m2 CLR
17:23 50.4 °F /  10.2 °C 48.1 °F /  8.9 °C 29.72 in /  1006.3 hPa Calm     92 % 0.00 in /  0 mm 25.0 W/m2 CLR
17:28 50.2 °F /  10.1 °C 48.2 °F /  9 °C 29.73 in /  1006.7 hPa Calm     93 % 0.00 in /  0 mm 27.5 W/m2 CLR
17:33 50.2 °F /  10.1 °C 47.9 °F /  8.8 °C 29.73 in /  1006.7 hPa Calm     92 % 0.00 in /  0 mm 0.2 W/m2 CLR
17:38 49.8 °F /  9.9 °C 47.9 °F /  8.8 °C 29.72 in /  1006.3 hPa Calm     93 % 0.00 in /  0 mm 22.5 W/m2 CLR
17:43 49.8 °F /  9.9 °C 47.9 °F /  8.8 °C 29.72 in /  1006.3 hPa Calm     93 % 0.00 in /  0 mm 25.0 W/m2 CLR
17:48 49.6 °F /  9.8 °C 47.7 °F /  8.7 °C 29.72 in /  1006.3 hPa Calm     93 % 0.00 in /  0 mm 0.0 W/m2 CLR
17:54 49.8 °F /  9.9 °C 47.9 °F /  8.8 °C 29.71 in /  1006 hPa Calm     93 % 0.00 in /  0 mm 22.5 W/m2 CLR
17:59 49.5 °F /  9.7 °C 47.5 °F /  8.6 °C 29.71 in /  1006 hPa Calm     93 % 0.00 in /  0 mm 15.0 W/m2 CLR
18:04 49.5 °F /  9.7 °C 47.5 °F /  8.6 °C 29.72 in /  1006.3 hPa Calm     93 % 0.00 in /  0 mm 20.0 W/m2 CLR
18:09 49.1 °F /  9.5 °C 46.9 °F /  8.3 °C 29.70 in /  1005.6 hPa Calm     92 % 0.00 in /  0 mm 22.5 W/m2 CLR
18:14 49.1 °F /  9.5 °C 47.2 °F /  8.4 °C 29.69 in /  1005.3 hPa Calm     93 % 0.00 in /  0 mm 0.0 W/m2 CLR
18:19 48.7 °F /  9.3 °C 46.5 °F /  8.1 °C 29.70 in /  1005.6 hPa SSE 1.2 mph /  1.9 km/h 1.2 mph /  1.9 km/h 92 % 0.00 in /  0 mm 17.5 W/m2
18:24 48.6 °F /  9.2 °C 46.6 °F /  8.1 °C 29.69 in /  1005.3 hPa Calm     93 % 0.00 in /  0 mm 20.0 W/m2
18:29 48.2 °F /  9 °C 46.3 °F /  7.9 °C 29.70 in /  1005.6 hPa Calm     93 % 0.00 in /  0 mm 0.0 W/m2
18:34 48.0 °F /  8.9 °C 46.1 °F /  7.8 °C 29.70 in /  1005.6 hPa Calm     93 % 0.00 in /  0 mm 20.0 W/m2
18:39 48.2 °F /  9 °C 46.6 °F /  8.1 °C 29.70 in /  1005.6 hPa Calm     94 % 0.00 in /  0 mm 20.0 W/m2
18:44 48.2 °F /  9 °C 46.6 °F /  8.1 °C 29.70 in /  1005.6 hPa Calm     94 % 0.00 in /  0 mm 0.0 W/m2
18:49 48.0 °F /  8.9 °C 46.7 °F /  8.2 °C 29.71 in /  1006 hPa Calm     95 % 0.00 in /  0 mm 17.5 W/m2
18:54 48.2 °F /  9 °C 46.8 °F /  8.2 °C 29.71 in /  1006 hPa Calm     95 % 0.00 in /  0 mm 15.0 W/m2
18:59 48.2 °F /  9 °C 46.8 °F /  8.2 °C 29.70 in /  1005.6 hPa Calm     95 % 0.00 in /  0 mm 0.0 W/m2
19:04 48.2 °F /  9 °C 46.8 °F /  8.2 °C 29.69 in /  1005.3 hPa Calm     95 % 0.00 in /  0 mm 20.0 W/m2
19:09 48.2 °F /  9 °C 46.8 °F /  8.2 °C 29.70 in /  1005.6 hPa SSE 0.4 mph /  0.6 km/h   95 % 0.00 in /  0 mm 20.0 W/m2
19:14 48.6 °F /  9.2 °C 46.6 °F /  8.1 °C 29.69 in /  1005.3 hPa NNW 0.6 mph /  1 km/h   93 % 0.00 in /  0 mm 0.0 W/m2
19:19 48.2 °F /  9 °C 46.3 °F /  7.9 °C 29.70 in /  1005.6 hPa Calm     93 % 0.00 in /  0 mm 20.0 W/m2
19:24 48.2 °F /  9 °C 46.3 °F /  7.9 °C 29.68 in /  1005 hPa Calm     93 % 0.00 in /  0 mm 17.5 W/m2
19:29 48.0 °F /  8.9 °C 46.1 °F /  7.8 °C 29.69 in /  1005.3 hPa Calm     93 % 0.00 in /  0 mm 0.0 W/m2
19:35 48.0 °F /  8.9 °C 46.1 °F /  7.8 °C 29.68 in /  1005 hPa Calm     93 % 0.00 in /  0 mm 17.5 W/m2
19:40 48.2 °F /  9 °C 46.3 °F /  7.9 °C 29.69 in /  1005.3 hPa Calm     93 % 0.00 in /  0 mm 22.5 W/m2 OVC
19:45 48.2 °F /  9 °C 46.3 °F /  7.9 °C 29.68 in /  1005 hPa South 0.3 mph /  0.5 km/h   93 % 0.00 in /  0 mm 0.0 W/m2 OVC
19:50 48.4 °F /  9.1 °C 46.2 °F /  7.9 °C 29.68 in /  1005 hPa South 1.2 mph /  1.9 km/h   92 % 0.00 in /  0 mm 20.0 W/m2 OVC
19:55 48.6 °F /  9.2 °C 46.3 °F /  7.9 °C 29.67 in /  1004.6 hPa Calm     92 % 0.00 in /  0 mm 0.0 W/m2 OVC
20:00 48.7 °F /  9.3 °C 46.5 °F /  8.1 °C 29.67 in /  1004.6 hPa Calm     92 % 0.00 in /  0 mm 0.0 W/m2 OVC
20:05 48.9 °F /  9.4 °C 47.0 °F /  8.3 °C 29.66 in /  1004.3 hPa SE 1.7 mph /  2.7 km/h 1.7 mph /  2.7 km/h 93 % 0.00 in /  0 mm 17.5 W/m2 OVC
20:10 49.1 °F /  9.5 °C 46.9 °F /  8.3 °C 29.67 in /  1004.6 hPa South 4.0 mph /  6.4 km/h 4.0 mph /  6.4 km/h 92 % 0.00 in /  0 mm 0.0 W/m2
20:15 49.1 °F /  9.5 °C 47.2 °F /  8.4 °C 29.66 in /  1004.3 hPa SSE 2.6 mph /  4.2 km/h 2.6 mph /  4.2 km/h 93 % 0.00 in /  0 mm 0.0 W/m2
20:20 49.3 °F /  9.6 °C 47.6 °F /  8.7 °C 29.66 in /  1004.3 hPa SE 5.1 mph /  8.2 km/h 5.1 mph /  8.2 km/h 94 % 0.00 in /  0 mm 12.5 W/m2
20:25 49.5 °F /  9.7 °C 47.8 °F /  8.8 °C 29.66 in /  1004.3 hPa SE 3.5 mph /  5.6 km/h 3.5 mph /  5.6 km/h 94 % 0.00 in /  0 mm 0.0 W/m2 OVC
20:30 49.5 °F /  9.7 °C 47.5 °F /  8.6 °C 29.65 in /  1003.9 hPa ESE 5.1 mph /  8.2 km/h 5.1 mph /  8.2 km/h 93 % 0.00 in /  0 mm 0.0 W/m2 OVC
20:35 49.6 °F /  9.8 °C 47.7 °F /  8.7 °C 29.64 in /  1003.6 hPa South 10.4 mph /  16.7 km/h   93 % 0.00 in /  0 mm 20.0 W/m2 OVC
20:40 49.6 °F /  9.8 °C 47.7 °F /  8.7 °C 29.63 in /  1003.3 hPa South 2.3 mph /  3.7 km/h   93 % 0.00 in /  0 mm 0.0 W/m2 OVC
20:45 49.8 °F /  9.9 °C 47.9 °F /  8.8 °C 29.64 in /  1003.6 hPa ESE 3.6 mph /  5.8 km/h 3.6 mph /  5.8 km/h 93 % 0.00 in /  0 mm 0.0 W/m2 OVC
20:50 49.8 °F /  9.9 °C 47.9 °F /  8.8 °C 29.62 in /  1002.9 hPa SE 8.1 mph /  13 km/h 8.1 mph /  13 km/h 93 % 0.00 in /  0 mm 17.5 W/m2 OVC
20:55 50.0 °F /  10 °C 48.1 °F /  8.9 °C 29.62 in /  1002.9 hPa SE 5.4 mph /  8.7 km/h 5.4 mph /  8.7 km/h 93 % 0.00 in /  0 mm 0.0 W/m2 OVC
21:00 49.8 °F /  9.9 °C 47.6 °F /  8.7 °C 29.63 in /  1003.3 hPa ESE 6.9 mph /  11.1 km/h 6.9 mph /  11.1 km/h 92 % 0.00 in /  0 mm 0.0 W/m2 OVC
21:05 49.5 °F /  9.7 °C 46.9 °F /  8.3 °C 29.62 in /  1002.9 hPa East 2.5 mph /  4 km/h 2.5 mph /  4 km/h 91 % 0.00 in /  0 mm 0.0 W/m2 OVC
21:10 49.8 °F /  9.9 °C 47.6 °F /  8.7 °C 29.62 in /  1002.9 hPa ESE 6.9 mph /  11.1 km/h 6.9 mph /  11.1 km/h 92 % 0.00 in /  0 mm 0.0 W/m2 OVC
21:16 49.5 °F /  9.7 °C 46.9 °F /  8.3 °C 29.62 in /  1002.9 hPa SE 3.0 mph /  4.8 km/h 3.0 mph /  4.8 km/h 91 % 0.00 in /  0 mm 22.5 W/m2 OVC
21:21 49.5 °F /  9.7 °C 46.9 °F /  8.3 °C 29.63 in /  1003.3 hPa SE 1.2 mph /  1.9 km/h 1.2 mph /  1.9 km/h 91 % 0.01 in /  0.25 mm 0.0 W/m2 RA
21:26 49.3 °F /  9.6 °C 46.5 °F /  8.1 °C 29.62 in /  1002.9 hPa ESE 8.1 mph /  13 km/h 8.1 mph /  13 km/h 90 % 0.02 in /  0.51 mm 0.0 W/m2 RA
21:31 49.1 °F /  9.5 °C 46.3 °F /  7.9 °C 29.61 in /  1002.6 hPa SSE 6.9 mph /  11.1 km/h 6.9 mph /  11.1 km/h 90 % 0.02 in /  0.51 mm 15.0 W/m2 RA
21:36 49.1 °F /  9.5 °C 46.3 °F /  7.9 °C 29.61 in /  1002.6 hPa WSW 4.6 mph /  7.4 km/h 4.6 mph /  7.4 km/h 90 % 0.02 in /  0.51 mm 0.0 W/m2
21:41 49.1 °F /  9.5 °C 46.6 °F /  8.1 °C 29.61 in /  1002.6 hPa SSE 2.6 mph /  4.2 km/h 2.6 mph /  4.2 km/h 91 % 0.02 in /  0.51 mm 0.0 W/m2 OVC
21:46 49.1 °F /  9.5 °C 46.6 °F /  8.1 °C 29.61 in /  1002.6 hPa SSE 4.6 mph /  7.4 km/h 4.6 mph /  7.4 km/h 91 % 0.02 in /  0.51 mm 22.5 W/m2 OVC
21:51 49.3 °F /  9.6 °C 46.8 °F /  8.2 °C 29.61 in /  1002.6 hPa West 4.7 mph /  7.6 km/h 4.7 mph /  7.6 km/h 91 % 0.02 in /  0.51 mm 0.0 W/m2 OVC
21:56 49.3 °F /  9.6 °C 46.5 °F /  8.1 °C 29.61 in /  1002.6 hPa SW 5.8 mph /  9.3 km/h 5.8 mph /  9.3 km/h 90 % 0.02 in /  0.51 mm 0.0 W/m2 OVC
22:01 49.5 °F /  9.7 °C 46.9 °F /  8.3 °C 29.60 in /  1002.3 hPa SSE 11.5 mph /  18.5 km/h 11.5 mph /  18.5 km/h 91 % 0.02 in /  0.51 mm 0.0 W/m2 OVC
22:06 49.6 °F /  9.8 °C 46.8 °F /  8.2 °C 29.61 in /  1002.6 hPa South 8.1 mph /  13 km/h 8.1 mph /  13 km/h 90 % 0.02 in /  0.51 mm 0.0 W/m2 OVC
22:11 49.5 °F /  9.7 °C 46.9 °F /  8.3 °C 29.60 in /  1002.3 hPa SE 3.5 mph /  5.6 km/h 3.5 mph /  5.6 km/h 91 % 0.02 in /  0.51 mm 0.0 W/m2 OVC
22:16 49.6 °F /  9.8 °C 47.1 °F /  8.4 °C 29.60 in /  1002.3 hPa ESE 6.9 mph /  11.1 km/h 6.9 mph /  11.1 km/h 91 % 0.02 in /  0.51 mm 0.0 W/m2 OVC
22:21 49.6 °F /  9.8 °C 47.1 °F /  8.4 °C 29.59 in /  1001.9 hPa SE 9.2 mph /  14.8 km/h 9.2 mph /  14.8 km/h 91 % 0.01 in /  0.25 mm 0.0 W/m2 OVC
22:26 49.8 °F /  9.9 °C 47.6 °F /  8.7 °C 29.60 in /  1002.3 hPa SE 6.6 mph /  10.6 km/h 6.6 mph /  10.6 km/h 92 % 0.01 in /  0.25 mm 22.5 W/m2 RA
Wether-Above
Compliments of Weather Underground - 2.25 mb
Welcome to Weather-Above
Cheddleton weather station supplies various organisations with data from our weather station one of them is the weather Underground this information displayed here is coming from the weather Underground server 

If any information is used please acknowledge the source to www weather-above.com or weather Underground